sensor_id;sensor_type;location;lat;lon;timestamp;P1;durP1;ratioP1;P2;durP2;ratioP2
17145;SDS011;8688;54.444;18.444;2023-04-21T00:00:07;11.13;;;2.83;;
17145;SDS011;8688;54.444;18.444;2023-04-21T00:02:35;8.17;;;2.70;;
17145;SDS011;8688;54.444;18.444;2023-04-21T00:05:04;7.30;;;3.40;;
17145;SDS011;8688;54.444;18.444;2023-04-21T00:07:35;8.77;;;3.23;;
17145;SDS011;8688;54.444;18.444;2023-04-21T00:10:04;8.67;;;3.00;;
17145;SDS011;8688;54.444;18.444;2023-04-21T00:12:32;6.83;;;3.27;;
17145;SDS011;8688;54.444;18.444;2023-04-21T00:15:00;9.70;;;3.70;;
17145;SDS011;8688;54.444;18.444;2023-04-21T00:17:27;12.33;;;3.00;;
17145;SDS011;8688;54.444;18.444;2023-04-21T00:19:55;9.37;;;3.20;;
17145;SDS011;8688;54.444;18.444;2023-04-21T00:22:22;9.30;;;3.40;;
17145;SDS011;8688;54.444;18.444;2023-04-21T00:24:51;5.17;;;2.77;;
17145;SDS011;8688;54.444;18.444;2023-04-21T00:27:18;10.03;;;3.30;;
17145;SDS011;8688;54.444;18.444;2023-04-21T00:29:46;7.77;;;3.00;;
17145;SDS011;8688;54.444;18.444;2023-04-21T00:32:13;6.37;;;3.60;;
17145;SDS011;8688;54.444;18.444;2023-04-21T00:34:41;10.37;;;3.03;;
17145;SDS011;8688;54.444;18.444;2023-04-21T00:37:08;10.30;;;3.23;;
17145;SDS011;8688;54.444;18.444;2023-04-21T00:39:35;6.43;;;2.87;;
17145;SDS011;8688;54.444;18.444;2023-04-21T00:42:04;9.53;;;3.43;;
17145;SDS011;8688;54.444;18.444;2023-04-21T00:44:32;8.47;;;3.20;;
17145;SDS011;8688;54.444;18.444;2023-04-21T00:46:59;6.30;;;3.10;;
17145;SDS011;8688;54.444;18.444;2023-04-21T00:49:26;8.30;;;3.50;;
17145;SDS011;8688;54.444;18.444;2023-04-21T00:51:54;7.43;;;3.10;;
17145;SDS011;8688;54.444;18.444;2023-04-21T00:54:22;7.13;;;3.47;;
17145;SDS011;8688;54.444;18.444;2023-04-21T00:56:51;8.90;;;3.90;;
17145;SDS011;8688;54.444;18.444;2023-04-21T00:59:20;8.20;;;3.63;;
17145;SDS011;8688;54.444;18.444;2023-04-21T01:01:48;8.70;;;3.70;;
17145;SDS011;8688;54.444;18.444;2023-04-21T01:04:17;8.03;;;3.13;;
17145;SDS011;8688;54.444;18.444;2023-04-21T01:06:44;8.30;;;3.63;;
17145;SDS011;8688;54.444;18.444;2023-04-21T01:09:12;8.10;;;3.73;;
17145;SDS011;8688;54.444;18.444;2023-04-21T01:11:39;8.40;;;3.50;;
17145;SDS011;8688;54.444;18.444;2023-04-21T01:14:07;10.63;;;3.93;;
17145;SDS011;8688;54.444;18.444;2023-04-21T01:16:36;9.53;;;3.50;;
17145;SDS011;8688;54.444;18.444;2023-04-21T01:19:03;8.70;;;4.53;;
17145;SDS011;8688;54.444;18.444;2023-04-21T01:21:38;8.47;;;3.93;;
17145;SDS011;8688;54.444;18.444;2023-04-21T01:24:06;9.00;;;3.87;;
17145;SDS011;8688;54.444;18.444;2023-04-21T01:26:33;15.20;;;4.00;;
17145;SDS011;8688;54.444;18.444;2023-04-21T01:29:01;9.57;;;3.90;;
17145;SDS011;8688;54.444;18.444;2023-04-21T01:31:28;9.77;;;4.20;;
17145;SDS011;8688;54.444;18.444;2023-04-21T01:33:56;8.30;;;3.23;;
17145;SDS011;8688;54.444;18.444;2023-04-21T01:36:23;10.83;;;4.00;;
17145;SDS011;8688;54.444;18.444;2023-04-21T01:38:52;7.27;;;3.33;;
17145;SDS011;8688;54.444;18.444;2023-04-21T01:41:19;9.53;;;4.50;;
17145;SDS011;8688;54.444;18.444;2023-04-21T01:43:47;7.70;;;4.03;;
17145;SDS011;8688;54.444;18.444;2023-04-21T01:46:14;6.80;;;3.53;;
17145;SDS011;8688;54.444;18.444;2023-04-21T01:48:45;9.63;;;3.43;;
17145;SDS011;8688;54.444;18.444;2023-04-21T01:51:12;13.17;;;4.43;;
17145;SDS011;8688;54.444;18.444;2023-04-21T01:53:40;9.30;;;4.03;;
17145;SDS011;8688;54.444;18.444;2023-04-21T01:56:11;9.97;;;4.07;;
17145;SDS011;8688;54.444;18.444;2023-04-21T01:58:39;6.57;;;3.90;;
17145;SDS011;8688;54.444;18.444;2023-04-21T02:01:06;12.27;;;3.87;;
17145;SDS011;8688;54.444;18.444;2023-04-21T02:03:34;11.17;;;4.03;;
17145;SDS011;8688;54.444;18.444;2023-04-21T02:06:02;8.43;;;3.97;;
17145;SDS011;8688;54.444;18.444;2023-04-21T02:08:30;7.70;;;3.90;;
17145;SDS011;8688;54.444;18.444;2023-04-21T02:10:57;8.77;;;3.90;;
17145;SDS011;8688;54.444;18.444;2023-04-21T02:13:28;5.70;;;3.40;;
17145;SDS011;8688;54.444;18.444;2023-04-21T02:15:56;11.43;;;3.97;;
17145;SDS011;8688;54.444;18.444;2023-04-21T02:18:23;6.37;;;3.63;;
17145;SDS011;8688;54.444;18.444;2023-04-21T02:20:53;10.98;;;3.70;;
17145;SDS011;8688;54.444;18.444;2023-04-21T02:23:21;7.13;;;3.70;;
17145;SDS011;8688;54.444;18.444;2023-04-21T02:25:48;8.00;;;3.50;;
17145;SDS011;8688;54.444;18.444;2023-04-21T02:28:16;11.43;;;3.87;;
17145;SDS011;8688;54.444;18.444;2023-04-21T02:30:45;10.97;;;3.77;;
17145;SDS011;8688;54.444;18.444;2023-04-21T02:33:12;10.17;;;4.30;;
17145;SDS011;8688;54.444;18.444;2023-04-21T02:35:40;7.53;;;4.00;;
17145;SDS011;8688;54.444;18.444;2023-04-21T02:38:07;7.47;;;3.90;;
17145;SDS011;8688;54.444;18.444;2023-04-21T02:40:34;8.93;;;3.90;;
17145;SDS011;8688;54.444;18.444;2023-04-21T02:43:02;8.37;;;4.30;;
17145;SDS011;8688;54.444;18.444;2023-04-21T02:45:29;8.20;;;3.47;;
17145;SDS011;8688;54.444;18.444;2023-04-21T02:47:58;7.17;;;3.83;;
17145;SDS011;8688;54.444;18.444;2023-04-21T02:50:25;5.93;;;3.27;;
17145;SDS011;8688;54.444;18.444;2023-04-21T02:52:52;8.10;;;3.57;;
17145;SDS011;8688;54.444;18.444;2023-04-21T02:55:20;6.77;;;3.70;;
17145;SDS011;8688;54.444;18.444;2023-04-21T02:57:48;9.23;;;3.90;;
17145;SDS011;8688;54.444;18.444;2023-04-21T03:00:15;5.83;;;3.97;;
17145;SDS011;8688;54.444;18.444;2023-04-21T03:02:43;6.63;;;3.80;;
17145;SDS011;8688;54.444;18.444;2023-04-21T03:05:12;7.70;;;3.97;;
17145;SDS011;8688;54.444;18.444;2023-04-21T03:07:40;7.80;;;3.97;;
17145;SDS011;8688;54.444;18.444;2023-04-21T03:10:07;7.97;;;3.87;;
17145;SDS011;8688;54.444;18.444;2023-04-21T03:12:35;7.57;;;3.73;;
17145;SDS011;8688;54.444;18.444;2023-04-21T03:15:02;10.77;;;4.13;;
17145;SDS011;8688;54.444;18.444;2023-04-21T03:17:30;9.60;;;4.07;;
17145;SDS011;8688;54.444;18.444;2023-04-21T03:19:58;9.30;;;4.10;;
17145;SDS011;8688;54.444;18.444;2023-04-21T03:22:27;8.67;;;3.83;;
17145;SDS011;8688;54.444;18.444;2023-04-21T03:24:54;10.03;;;3.77;;
17145;SDS011;8688;54.444;18.444;2023-04-21T03:27:22;8.33;;;4.03;;
17145;SDS011;8688;54.444;18.444;2023-04-21T03:29:49;5.93;;;3.80;;
17145;SDS011;8688;54.444;18.444;2023-04-21T03:32:16;9.37;;;4.30;;
17145;SDS011;8688;54.444;18.444;2023-04-21T03:34:44;11.77;;;4.33;;
17145;SDS011;8688;54.444;18.444;2023-04-21T03:37:11;6.37;;;3.60;;
17145;SDS011;8688;54.444;18.444;2023-04-21T03:39:40;6.53;;;3.87;;
17145;SDS011;8688;54.444;18.444;2023-04-21T03:42:07;9.77;;;3.93;;
17145;SDS011;8688;54.444;18.444;2023-04-21T03:44:35;5.73;;;3.77;;
17145;SDS011;8688;54.444;18.444;2023-04-21T03:47:02;7.07;;;3.90;;
17145;SDS011;8688;54.444;18.444;2023-04-21T03:49:32;8.13;;;3.87;;
17145;SDS011;8688;54.444;18.444;2023-04-21T03:51:59;5.73;;;3.67;;
17145;SDS011;8688;54.444;18.444;2023-04-21T03:54:27;10.20;;;4.33;;
17145;SDS011;8688;54.444;18.444;2023-04-21T03:56:56;5.73;;;3.50;;
17145;SDS011;8688;54.444;18.444;2023-04-21T03:59:23;7.33;;;3.70;;
17145;SDS011;8688;54.444;18.444;2023-04-21T04:01:51;10.67;;;3.97;;
17145;SDS011;8688;54.444;18.444;2023-04-21T04:04:18;6.63;;;3.67;;
17145;SDS011;8688;54.444;18.444;2023-04-21T04:06:45;5.53;;;3.43;;
17145;SDS011;8688;54.444;18.444;2023-04-21T04:09:13;5.60;;;3.77;;
17145;SDS011;8688;54.444;18.444;2023-04-21T04:11:40;10.40;;;3.90;;
17145;SDS011;8688;54.444;18.444;2023-04-21T04:14:09;9.73;;;4.07;;
17145;SDS011;8688;54.444;18.444;2023-04-21T04:16:37;9.27;;;3.97;;
17145;SDS011;8688;54.444;18.444;2023-04-21T04:19:05;9.13;;;3.87;;
17145;SDS011;8688;54.444;18.444;2023-04-21T04:21:33;7.50;;;3.80;;
17145;SDS011;8688;54.444;18.444;2023-04-21T04:24:01;6.67;;;3.50;;
17145;SDS011;8688;54.444;18.444;2023-04-21T04:26:29;8.97;;;3.87;;
17145;SDS011;8688;54.444;18.444;2023-04-21T04:28:58;8.13;;;4.00;;
17145;SDS011;8688;54.444;18.444;2023-04-21T04:31:28;7.63;;;3.70;;
17145;SDS011;8688;54.444;18.444;2023-04-21T04:33:56;10.63;;;4.03;;
17145;SDS011;8688;54.444;18.444;2023-04-21T04:36:25;8.50;;;4.00;;
17145;SDS011;8688;54.444;18.444;2023-04-21T04:38:53;9.13;;;3.87;;
17145;SDS011;8688;54.444;18.444;2023-04-21T04:41:22;9.60;;;3.97;;
17145;SDS011;8688;54.444;18.444;2023-04-21T04:43:50;8.03;;;3.37;;
17145;SDS011;8688;54.444;18.444;2023-04-21T04:46:17;10.83;;;3.90;;
17145;SDS011;8688;54.444;18.444;2023-04-21T04:48:47;8.70;;;4.30;;
17145;SDS011;8688;54.444;18.444;2023-04-21T04:51:15;10.53;;;4.00;;
17145;SDS011;8688;54.444;18.444;2023-04-21T04:53:42;11.20;;;3.50;;
17145;SDS011;8688;54.444;18.444;2023-04-21T04:56:09;9.70;;;3.63;;
17145;SDS011;8688;54.444;18.444;2023-04-21T04:58:37;10.63;;;3.87;;
17145;SDS011;8688;54.444;18.444;2023-04-21T05:01:10;9.83;;;3.57;;
17145;SDS011;8688;54.444;18.444;2023-04-21T05:03:38;10.63;;;4.30;;
17145;SDS011;8688;54.444;18.444;2023-04-21T05:06:07;12.67;;;4.00;;
17145;SDS011;8688;54.444;18.444;2023-04-21T05:08:35;7.90;;;3.30;;
17145;SDS011;8688;54.444;18.444;2023-04-21T05:11:04;10.70;;;3.70;;
17145;SDS011;8688;54.444;18.444;2023-04-21T05:13:31;16.10;;;3.50;;
17145;SDS011;8688;54.444;18.444;2023-04-21T05:15:58;7.73;;;3.47;;
17145;SDS011;8688;54.444;18.444;2023-04-21T05:18:27;11.70;;;3.47;;
17145;SDS011;8688;54.444;18.444;2023-04-21T05:20:55;12.37;;;3.87;;
17145;SDS011;8688;54.444;18.444;2023-04-21T05:23:24;10.87;;;3.47;;
17145;SDS011;8688;54.444;18.444;2023-04-21T05:25:51;9.98;;;3.45;;
17145;SDS011;8688;54.444;18.444;2023-04-21T05:28:18;12.30;;;3.53;;
17145;SDS011;8688;54.444;18.444;2023-04-21T05:30:47;8.90;;;3.10;;
17145;SDS011;8688;54.444;18.444;2023-04-21T05:33:16;10.90;;;3.30;;
17145;SDS011;8688;54.444;18.444;2023-04-21T05:35:45;8.83;;;3.50;;
17145;SDS011;8688;54.444;18.444;2023-04-21T05:38:12;5.10;;;3.13;;
17145;SDS011;8688;54.444;18.444;2023-04-21T05:40:41;7.03;;;3.00;;
17145;SDS011;8688;54.444;18.444;2023-04-21T05:43:09;11.43;;;3.13;;
17145;SDS011;8688;54.444;18.444;2023-04-21T05:45:38;8.55;;;3.20;;
17145;SDS011;8688;54.444;18.444;2023-04-21T05:48:06;4.63;;;2.80;;
17145;SDS011;8688;54.444;18.444;2023-04-21T05:50:33;6.82;;;2.92;;
17145;SDS011;8688;54.444;18.444;2023-04-21T05:53:00;7.23;;;2.93;;
17145;SDS011;8688;54.444;18.444;2023-04-21T05:55:28;9.73;;;2.78;;
17145;SDS011;8688;54.444;18.444;2023-04-21T05:57:57;9.23;;;2.90;;
17145;SDS011;8688;54.444;18.444;2023-04-21T06:00:24;7.20;;;2.67;;
17145;SDS011;8688;54.444;18.444;2023-04-21T06:02:52;11.57;;;3.38;;
17145;SDS011;8688;54.444;18.444;2023-04-21T06:05:19;7.82;;;2.97;;
17145;SDS011;8688;54.444;18.444;2023-04-21T06:07:47;7.20;;;3.00;;
17145;SDS011;8688;54.444;18.444;2023-04-21T06:10:15;5.53;;;2.60;;
17145;SDS011;8688;54.444;18.444;2023-04-21T06:12:43;8.18;;;2.83;;
17145;SDS011;8688;54.444;18.444;2023-04-21T06:15:12;6.43;;;2.85;;
17145;SDS011;8688;54.444;18.444;2023-04-21T06:17:39;7.47;;;3.05;;
17145;SDS011;8688;54.444;18.444;2023-04-21T06:20:07;7.85;;;2.80;;
17145;SDS011;8688;54.444;18.444;2023-04-21T06:22:35;5.57;;;2.60;;
17145;SDS011;8688;54.444;18.444;2023-04-21T06:25:03;8.13;;;3.22;;
17145;SDS011;8688;54.444;18.444;2023-04-21T06:27:31;6.28;;;3.00;;
17145;SDS011;8688;54.444;18.444;2023-04-21T06:29:58;12.80;;;3.17;;
17145;SDS011;8688;54.444;18.444;2023-04-21T06:32:27;6.38;;;2.90;;
17145;SDS011;8688;54.444;18.444;2023-04-21T06:34:54;8.15;;;3.13;;
17145;SDS011;8688;54.444;18.444;2023-04-21T06:37:22;6.05;;;2.88;;
17145;SDS011;8688;54.444;18.444;2023-04-21T06:39:49;7.05;;;2.70;;
17145;SDS011;8688;54.444;18.444;2023-04-21T06:42:16;6.20;;;2.95;;
17145;SDS011;8688;54.444;18.444;2023-04-21T06:44:44;7.93;;;2.50;;
17145;SDS011;8688;54.444;18.444;2023-04-21T06:47:11;7.15;;;3.17;;
17145;SDS011;8688;54.444;18.444;2023-04-21T06:49:42;5.68;;;2.70;;
17145;SDS011;8688;54.444;18.444;2023-04-21T06:52:10;8.90;;;3.10;;
17145;SDS011;8688;54.444;18.444;2023-04-21T06:54:37;8.10;;;3.20;;
17145;SDS011;8688;54.444;18.444;2023-04-21T06:57:04;9.13;;;3.17;;
17145;SDS011;8688;54.444;18.444;2023-04-21T06:59:32;5.43;;;2.75;;
17145;SDS011;8688;54.444;18.444;2023-04-21T07:01:59;7.25;;;2.63;;
17145;SDS011;8688;54.444;18.444;2023-04-21T07:04:27;5.13;;;2.90;;
17145;SDS011;8688;54.444;18.444;2023-04-21T07:06:57;6.38;;;2.70;;
17145;SDS011;8688;54.444;18.444;2023-04-21T07:09:25;7.60;;;3.05;;
17145;SDS011;8688;54.444;18.444;2023-04-21T07:11:55;7.22;;;3.20;;
17145;SDS011;8688;54.444;18.444;2023-04-21T07:14:22;6.97;;;2.90;;
17145;SDS011;8688;54.444;18.444;2023-04-21T07:16:50;6.68;;;2.75;;
17145;SDS011;8688;54.444;18.444;2023-04-21T07:19:17;8.57;;;3.05;;
17145;SDS011;8688;54.444;18.444;2023-04-21T07:21:44;7.78;;;2.63;;
17145;SDS011;8688;54.444;18.444;2023-04-21T07:24:13;8.32;;;3.25;;
17145;SDS011;8688;54.444;18.444;2023-04-21T07:26:41;5.80;;;2.95;;
17145;SDS011;8688;54.444;18.444;2023-04-21T07:29:08;15.93;;;3.20;;
17145;SDS011;8688;54.444;18.444;2023-04-21T07:31:36;11.77;;;3.53;;
17145;SDS011;8688;54.444;18.444;2023-04-21T07:34:03;10.30;;;3.33;;
17145;SDS011;8688;54.444;18.444;2023-04-21T07:36:31;8.82;;;3.13;;
17145;SDS011;8688;54.444;18.444;2023-04-21T07:38:58;6.78;;;3.35;;
17145;SDS011;8688;54.444;18.444;2023-04-21T07:41:27;8.82;;;3.40;;
17145;SDS011;8688;54.444;18.444;2023-04-21T07:43:55;8.55;;;3.45;;
17145;SDS011;8688;54.444;18.444;2023-04-21T07:46:22;10.82;;;3.30;;
17145;SDS011;8688;54.444;18.444;2023-04-21T07:48:54;8.38;;;3.42;;
17145;SDS011;8688;54.444;18.444;2023-04-21T07:51:22;8.63;;;3.42;;
17145;SDS011;8688;54.444;18.444;2023-04-21T07:53:50;8.57;;;3.60;;
17145;SDS011;8688;54.444;18.444;2023-04-21T07:56:17;28.75;;;4.25;;
17145;SDS011;8688;54.444;18.444;2023-04-21T07:58:46;11.57;;;4.00;;
17145;SDS011;8688;54.444;18.444;2023-04-21T08:01:14;7.03;;;2.97;;
17145;SDS011;8688;54.444;18.444;2023-04-21T08:03:42;11.07;;;3.25;;
17145;SDS011;8688;54.444;18.444;2023-04-21T08:06:09;9.07;;;3.25;;
17145;SDS011;8688;54.444;18.444;2023-04-21T08:08:37;5.40;;;3.17;;
17145;SDS011;8688;54.444;18.444;2023-04-21T08:11:04;5.45;;;3.03;;
17145;SDS011;8688;54.444;18.444;2023-04-21T08:13:32;4.63;;;3.10;;
17145;SDS011;8688;54.444;18.444;2023-04-21T08:16:01;7.43;;;3.17;;
17145;SDS011;8688;54.444;18.444;2023-04-21T08:18:29;10.68;;;3.45;;
17145;SDS011;8688;54.444;18.444;2023-04-21T08:20:56;10.25;;;3.10;;
17145;SDS011;8688;54.444;18.444;2023-04-21T08:23:24;10.82;;;3.20;;
17145;SDS011;8688;54.444;18.444;2023-04-21T08:25:54;9.88;;;3.30;;
17145;SDS011;8688;54.444;18.444;2023-04-21T08:28:21;5.55;;;2.40;;
17145;SDS011;8688;54.444;18.444;2023-04-21T08:30:49;5.25;;;3.03;;
17145;SDS011;8688;54.444;18.444;2023-04-21T08:33:18;6.10;;;3.10;;
17145;SDS011;8688;54.444;18.444;2023-04-21T08:35:45;6.10;;;2.60;;
17145;SDS011;8688;54.444;18.444;2023-04-21T08:38:12;4.45;;;2.60;;
17145;SDS011;8688;54.444;18.444;2023-04-21T08:40:40;6.85;;;2.40;;
17145;SDS011;8688;54.444;18.444;2023-04-21T08:43:07;9.18;;;3.10;;
17145;SDS011;8688;54.444;18.444;2023-04-21T08:45:35;7.00;;;2.80;;
17145;SDS011;8688;54.444;18.444;2023-04-21T08:48:02;7.40;;;2.55;;
17145;SDS011;8688;54.444;18.444;2023-04-21T08:50:32;3.85;;;2.38;;
17145;SDS011;8688;54.444;18.444;2023-04-21T08:53:01;4.50;;;3.10;;
17145;SDS011;8688;54.444;18.444;2023-04-21T08:55:29;6.70;;;2.60;;
17145;SDS011;8688;54.444;18.444;2023-04-21T08:57:58;5.00;;;2.50;;
17145;SDS011;8688;54.444;18.444;2023-04-21T09:00:29;6.97;;;2.42;;
17145;SDS011;8688;54.444;18.444;2023-04-21T09:02:57;9.52;;;2.63;;
17145;SDS011;8688;54.444;18.444;2023-04-21T09:05:26;5.43;;;2.42;;
17145;SDS011;8688;54.444;18.444;2023-04-21T09:08:06;6.25;;;2.45;;
17145;SDS011;8688;54.444;18.444;2023-04-21T09:10:41;5.00;;;2.58;;
17145;SDS011;8688;54.444;18.444;2023-04-21T09:13:09;7.68;;;2.65;;
17145;SDS011;8688;54.444;18.444;2023-04-21T09:15:39;7.03;;;2.45;;
17145;SDS011;8688;54.444;18.444;2023-04-21T09:18:12;6.35;;;2.47;;
17145;SDS011;8688;54.444;18.444;2023-04-21T09:20:41;6.72;;;2.30;;
17145;SDS011;8688;54.444;18.444;2023-04-21T09:23:10;5.68;;;2.53;;
17145;SDS011;8688;54.444;18.444;2023-04-21T09:25:38;5.57;;;2.90;;
17145;SDS011;8688;54.444;18.444;2023-04-21T09:28:07;6.97;;;2.63;;
17145;SDS011;8688;54.444;18.444;2023-04-21T09:30:35;6.57;;;2.35;;
17145;SDS011;8688;54.444;18.444;2023-04-21T09:33:03;4.03;;;2.40;;
17145;SDS011;8688;54.444;18.444;2023-04-21T09:35:31;6.40;;;2.40;;
17145;SDS011;8688;54.444;18.444;2023-04-21T09:38:00;6.25;;;2.50;;
17145;SDS011;8688;54.444;18.444;2023-04-21T09:40:30;5.47;;;2.35;;
17145;SDS011;8688;54.444;18.444;2023-04-21T09:42:58;5.18;;;2.30;;
17145;SDS011;8688;54.444;18.444;2023-04-21T09:45:26;6.50;;;2.55;;
17145;SDS011;8688;54.444;18.444;2023-04-21T09:47:55;4.18;;;2.17;;
17145;SDS011;8688;54.444;18.444;2023-04-21T09:50:23;9.35;;;2.90;;
17145;SDS011;8688;54.444;18.444;2023-04-21T09:52:52;6.55;;;2.70;;
17145;SDS011;8688;54.444;18.444;2023-04-21T09:55:24;5.55;;;2.55;;
17145;SDS011;8688;54.444;18.444;2023-04-21T09:57:58;6.50;;;2.85;;
17145;SDS011;8688;54.444;18.444;2023-04-21T10:00:26;5.10;;;2.67;;
17145;SDS011;8688;54.444;18.444;2023-04-21T10:02:56;5.18;;;2.65;;
17145;SDS011;8688;54.444;18.444;2023-04-21T10:05:26;4.32;;;2.42;;
17145;SDS011;8688;54.444;18.444;2023-04-21T10:07:54;4.30;;;2.67;;
17145;SDS011;8688;54.444;18.444;2023-04-21T10:10:22;5.40;;;2.55;;
17145;SDS011;8688;54.444;18.444;2023-04-21T10:12:55;7.68;;;2.60;;
17145;SDS011;8688;54.444;18.444;2023-04-21T10:15:28;5.70;;;2.70;;
17145;SDS011;8688;54.444;18.444;2023-04-21T10:18:10;6.72;;;2.95;;
17145;SDS011;8688;54.444;18.444;2023-04-21T10:20:52;6.45;;;2.70;;
17145;SDS011;8688;54.444;18.444;2023-04-21T10:23:30;5.78;;;2.70;;
17145;SDS011;8688;54.444;18.444;2023-04-21T10:26:04;3.90;;;2.67;;
17145;SDS011;8688;54.444;18.444;2023-04-21T10:28:46;7.32;;;2.63;;
17145;SDS011;8688;54.444;18.444;2023-04-21T10:31:18;11.35;;;2.65;;
17145;SDS011;8688;54.444;18.444;2023-04-21T10:36:47;5.43;;;2.80;;
17145;SDS011;8688;54.444;18.444;2023-04-21T10:39:34;5.38;;;2.72;;
17145;SDS011;8688;54.444;18.444;2023-04-21T10:45:09;5.22;;;2.20;;
17145;SDS011;8688;54.444;18.444;2023-04-21T10:47:38;7.18;;;2.45;;
17145;SDS011;8688;54.444;18.444;2023-04-21T10:53:06;7.38;;;2.45;;
17145;SDS011;8688;54.444;18.444;2023-04-21T10:55:35;6.30;;;2.20;;
17145;SDS011;8688;54.444;18.444;2023-04-21T10:58:04;4.68;;;2.65;;
17145;SDS011;8688;54.444;18.444;2023-04-21T11:00:35;3.38;;;2.25;;
17145;SDS011;8688;54.444;18.444;2023-04-21T11:03:03;6.82;;;2.13;;
17145;SDS011;8688;54.444;18.444;2023-04-21T11:05:33;7.32;;;2.50;;
17145;SDS011;8688;54.444;18.444;2023-04-21T11:08:08;4.82;;;2.20;;
17145;SDS011;8688;54.444;18.444;2023-04-21T11:13:32;6.15;;;2.47;;
17145;SDS011;8688;54.444;18.444;2023-04-21T11:16:03;5.57;;;2.28;;
17145;SDS011;8688;54.444;18.444;2023-04-21T11:18:39;5.55;;;2.65;;
17145;SDS011;8688;54.444;18.444;2023-04-21T11:21:08;4.88;;;2.10;;
17145;SDS011;8688;54.444;18.444;2023-04-21T11:23:39;7.32;;;2.50;;
17145;SDS011;8688;54.444;18.444;2023-04-21T11:26:07;2.97;;;1.98;;
17145;SDS011;8688;54.444;18.444;2023-04-21T11:28:34;4.80;;;2.60;;
17145;SDS011;8688;54.444;18.444;2023-04-21T11:31:03;4.63;;;2.40;;
17145;SDS011;8688;54.444;18.444;2023-04-21T11:33:34;6.82;;;2.35;;
17145;SDS011;8688;54.444;18.444;2023-04-21T11:36:03;10.80;;;2.83;;
17145;SDS011;8688;54.444;18.444;2023-04-21T11:38:38;5.53;;;2.30;;
17145;SDS011;8688;54.444;18.444;2023-04-21T11:41:06;3.30;;;2.10;;
17145;SDS011;8688;54.444;18.444;2023-04-21T11:43:48;7.50;;;1.90;;
17145;SDS011;8688;54.444;18.444;2023-04-21T11:46:17;4.88;;;2.10;;
17145;SDS011;8688;54.444;18.444;2023-04-21T11:49:44;4.57;;;2.20;;
17145;SDS011;8688;54.444;18.444;2023-04-21T11:55:12;5.07;;;2.20;;
17145;SDS011;8688;54.444;18.444;2023-04-21T11:57:44;7.82;;;2.53;;
17145;SDS011;8688;54.444;18.444;2023-04-21T12:00:11;4.32;;;2.17;;
17145;SDS011;8688;54.444;18.444;2023-04-21T12:02:41;4.60;;;2.45;;
17145;SDS011;8688;54.444;18.444;2023-04-21T12:05:10;5.15;;;1.98;;
17145;SDS011;8688;54.444;18.444;2023-04-21T12:07:40;6.63;;;2.85;;
17145;SDS011;8688;54.444;18.444;2023-04-21T12:10:08;7.32;;;2.53;;
17145;SDS011;8688;54.444;18.444;2023-04-21T12:12:37;5.70;;;2.50;;
17145;SDS011;8688;54.444;18.444;2023-04-21T12:15:05;6.40;;;2.40;;
17145;SDS011;8688;54.444;18.444;2023-04-21T12:17:35;6.30;;;2.15;;
17145;SDS011;8688;54.444;18.444;2023-04-21T12:20:05;3.78;;;2.40;;
17145;SDS011;8688;54.444;18.444;2023-04-21T12:22:34;6.80;;;2.55;;
17145;SDS011;8688;54.444;18.444;2023-04-21T12:25:01;5.40;;;2.08;;
17145;SDS011;8688;54.444;18.444;2023-04-21T12:27:28;3.65;;;2.47;;
17145;SDS011;8688;54.444;18.444;2023-04-21T12:29:56;3.88;;;2.28;;
17145;SDS011;8688;54.444;18.444;2023-04-21T12:32:24;5.47;;;2.15;;
17145;SDS011;8688;54.444;18.444;2023-04-21T12:34:51;5.03;;;2.30;;
17145;SDS011;8688;54.444;18.444;2023-04-21T12:37:20;6.50;;;2.20;;
17145;SDS011;8688;54.444;18.444;2023-04-21T12:39:48;3.75;;;2.22;;
17145;SDS011;8688;54.444;18.444;2023-04-21T12:42:15;3.55;;;2.10;;
17145;SDS011;8688;54.444;18.444;2023-04-21T12:44:43;5.22;;;2.10;;
17145;SDS011;8688;54.444;18.444;2023-04-21T12:47:10;5.13;;;2.10;;
17145;SDS011;8688;54.444;18.444;2023-04-21T12:49:37;5.80;;;1.92;;
17145;SDS011;8688;54.444;18.444;2023-04-21T12:52:05;3.30;;;2.20;;
17145;SDS011;8688;54.444;18.444;2023-04-21T12:54:34;5.15;;;2.00;;
17145;SDS011;8688;54.444;18.444;2023-04-21T12:57:01;4.93;;;2.30;;
17145;SDS011;8688;54.444;18.444;2023-04-21T12:59:29;3.40;;;2.15;;
17145;SDS011;8688;54.444;18.444;2023-04-21T13:01:56;5.43;;;2.20;;
17145;SDS011;8688;54.444;18.444;2023-04-21T13:04:23;6.97;;;2.30;;
17145;SDS011;8688;54.444;18.444;2023-04-21T13:06:51;3.13;;;2.03;;
17145;SDS011;8688;54.444;18.444;2023-04-21T13:09:18;3.65;;;2.00;;
17145;SDS011;8688;54.444;18.444;2023-04-21T13:11:47;6.15;;;2.08;;
17145;SDS011;8688;54.444;18.444;2023-04-21T13:14:16;3.47;;;2.50;;
17145;SDS011;8688;54.444;18.444;2023-04-21T13:16:44;3.40;;;2.15;;
17145;SDS011;8688;54.444;18.444;2023-04-21T13:19:11;6.38;;;2.13;;
17145;SDS011;8688;54.444;18.444;2023-04-21T13:21:39;9.35;;;2.47;;
17145;SDS011;8688;54.444;18.444;2023-04-21T13:24:06;9.10;;;2.47;;
17145;SDS011;8688;54.444;18.444;2023-04-21T13:26:34;5.95;;;2.03;;
17145;SDS011;8688;54.444;18.444;2023-04-21T13:29:03;6.03;;;2.28;;
17145;SDS011;8688;54.444;18.444;2023-04-21T13:31:30;3.75;;;2.25;;
17145;SDS011;8688;54.444;18.444;2023-04-21T13:33:58;5.78;;;2.22;;
17145;SDS011;8688;54.444;18.444;2023-04-21T13:36:26;3.88;;;2.28;;
17145;SDS011;8688;54.444;18.444;2023-04-21T13:38:53;5.47;;;2.22;;
17145;SDS011;8688;54.444;18.444;2023-04-21T13:41:21;5.80;;;2.20;;
17145;SDS011;8688;54.444;18.444;2023-04-21T13:43:48;15.80;;;3.75;;
17145;SDS011;8688;54.444;18.444;2023-04-21T13:46:17;17.02;;;2.90;;
17145;SDS011;8688;54.444;18.444;2023-04-21T13:48:45;5.68;;;2.00;;
17145;SDS011;8688;54.444;18.444;2023-04-21T13:51:14;5.38;;;2.15;;
17145;SDS011;8688;54.444;18.444;2023-04-21T13:53:41;5.85;;;2.08;;
17145;SDS011;8688;54.444;18.444;2023-04-21T13:56:09;5.38;;;1.98;;
17145;SDS011;8688;54.444;18.444;2023-04-21T13:58:38;2.45;;;1.52;;
17145;SDS011;8688;54.444;18.444;2023-04-21T14:01:05;5.80;;;1.90;;
17145;SDS011;8688;54.444;18.444;2023-04-21T14:03:34;9.95;;;1.88;;
17145;SDS011;8688;54.444;18.444;2023-04-21T14:06:02;6.93;;;1.75;;
17145;SDS011;8688;54.444;18.444;2023-04-21T14:08:29;4.00;;;1.67;;
17145;SDS011;8688;54.444;18.444;2023-04-21T14:10:57;3.58;;;1.50;;
17145;SDS011;8688;54.444;18.444;2023-04-21T14:13:24;3.53;;;1.48;;
17145;SDS011;8688;54.444;18.444;2023-04-21T14:15:53;2.55;;;1.30;;
17145;SDS011;8688;54.444;18.444;2023-04-21T14:18:20;3.72;;;1.40;;
17145;SDS011;8688;54.444;18.444;2023-04-21T14:20:49;3.08;;;1.27;;
17145;SDS011;8688;54.444;18.444;2023-04-21T14:23:16;5.45;;;1.40;;
17145;SDS011;8688;54.444;18.444;2023-04-21T14:25:44;1.90;;;1.10;;
17145;SDS011;8688;54.444;18.444;2023-04-21T14:28:11;11.65;;;1.60;;
17145;SDS011;8688;54.444;18.444;2023-04-21T14:30:38;6.40;;;1.52;;
17145;SDS011;8688;54.444;18.444;2023-04-21T14:33:07;16.05;;;2.58;;
17145;SDS011;8688;54.444;18.444;2023-04-21T14:35:35;5.63;;;1.17;;
17145;SDS011;8688;54.444;18.444;2023-04-21T14:38:03;20.17;;;2.75;;
17145;SDS011;8688;54.444;18.444;2023-04-21T14:40:32;4.63;;;1.17;;
17145;SDS011;8688;54.444;18.444;2023-04-21T14:43:00;4.35;;;1.15;;
17145;SDS011;8688;54.444;18.444;2023-04-21T14:45:28;2.58;;;1.05;;
17145;SDS011;8688;54.444;18.444;2023-04-21T14:47:55;7.18;;;1.33;;
17145;SDS011;8688;54.444;18.444;2023-04-21T14:50:23;2.92;;;1.10;;
17145;SDS011;8688;54.444;18.444;2023-04-21T14:52:50;1.73;;;1.20;;
17145;SDS011;8688;54.444;18.444;2023-04-21T14:55:19;1.63;;;1.10;;
17145;SDS011;8688;54.444;18.444;2023-04-21T14:57:47;2.00;;;1.10;;
17145;SDS011;8688;54.444;18.444;2023-04-21T15:00:16;3.20;;;0.90;;
17145;SDS011;8688;54.444;18.444;2023-04-21T15:02:44;1.35;;;1.13;;
17145;SDS011;8688;54.444;18.444;2023-04-21T15:05:11;3.55;;;1.08;;
17145;SDS011;8688;54.444;18.444;2023-04-21T15:07:39;1.00;;;0.85;;